Address 0x4d8f634f473a8bc25ac70f25efe0ed4d53792bd1 4

 
Txn Hash
Block
From
To
Value [Txn Fee]
0xa1ce6c020e0624b987199f553bbdd064e14a7cd061064bec8b49c3bb9306020726494082021-10-28 9:00:591 hr 33 mins ago0x4d8f634f473a8bc25ac70f25efe0ed4d53792bd1OUT Uniswap V3: Router0 ETH0.002006730323 ETH
0x9b0341cd6a54653469fe6821392e6db5c1f232b110e937da78f6198995273a9e26494012021-10-28 9:00:591 hr 33 mins ago0x4d8f634f473a8bc25ac70f25efe0ed4d53792bd1OUT0xfa7f8980b0f1e64a2062791cc3b0871572f1f7f00 ETH0.001376054478 ETH
0xb3ac53f2214e4ad17e6e10dbe866034690e9df2b6a3ab537b2ad7b2ea37dda9226493802021-10-28 9:00:141 hr 33 mins ago0x4d8f634f473a8bc25ac70f25efe0ed4d53792bd1OUT 0xabbc5f99639c9b6bcb58544ddf04efa6802f40640 ETH0.001642567992 ETH
0x6a6ccbd5f729be444d086df4b0166a9f1ace3a154f3362c571f19b77ca39558c26446782021-10-28 5:30:225 hrs 3 mins ago0x4d8f634f473a8bc25ac70f25efe0ed4d53792bd1OUT 0xabbc5f99639c9b6bcb58544ddf04efa6802f40640 ETH0.003200851315 ETH
0x80abb91985b99fa209288f6d36ef67cdcc87d23f471a10babb1675dd5933951e26445242021-10-28 5:22:365 hrs 11 mins ago0x4d8f634f473a8bc25ac70f25efe0ed4d53792bd1OUT 0xabbc5f99639c9b6bcb58544ddf04efa6802f40640 ETH0.003205785751 ETH
0x50a31ed553ff6d071f0329692a3e888b86a6a95125d0d734915a5065c72aeb3426288462021-10-27 19:36:2314 hrs 57 mins ago0x4d8f634f473a8bc25ac70f25efe0ed4d53792bd1OUT 0xabbc5f99639c9b6bcb58544ddf04efa6802f40640 ETH0.002526895488 ETH
0xa1fcd8b5b311cc0b8a6cc9bba0751d9ee98baffdeb0cbdd773baf8446a277abd26272662021-10-27 18:56:3915 hrs 37 mins ago0x4d8f634f473a8bc25ac70f25efe0ed4d53792bd1OUT 0xabbc5f99639c9b6bcb58544ddf04efa6802f40640 ETH0.001095533747 ETH
0xb85fe6da5cca34841831b5f798ceeb658c2dc21aac4f1dcea016cbab209b3fc926213192021-10-27 15:49:5618 hrs 44 mins ago0x4d8f634f473a8bc25ac70f25efe0ed4d53792bd1OUT 0xabbc5f99639c9b6bcb58544ddf04efa6802f40640 ETH0.002398314406 ETH
0x057190e11bc5547652d78fdbc1037b12a436dd3ed18df61dbc9e6018561b44e426074622021-10-27 8:37:011 day 1 hr ago0x4d8f634f473a8bc25ac70f25efe0ed4d53792bd1OUT Uniswap V3: Router0 ETH0.001055747749 ETH
0x4fcff292091d735630723667a40db5819a6f6ee2574d15aa7c10773800ee59ad26074422021-10-27 8:37:011 day 1 hr ago0x4d8f634f473a8bc25ac70f25efe0ed4d53792bd1OUT 0xabbc5f99639c9b6bcb58544ddf04efa6802f40640 ETH0.001217318656 ETH
0xd670cd000e8a6a67b2b85a1004e74b591095cca6c62eb065f687a909d632e4a226060952021-10-27 8:12:501 day 2 hrs ago0x4d8f634f473a8bc25ac70f25efe0ed4d53792bd1OUT 0xabbc5f99639c9b6bcb58544ddf04efa6802f40640 ETH0.00244609604 ETH
0xf5c6a0300c1894fadd3c4a5bdd4a9a5c87a9885b43d39c45609482ebb883b60225909732021-10-27 2:53:121 day 7 hrs ago0x4d8f634f473a8bc25ac70f25efe0ed4d53792bd1OUT Uniswap V3: Router0 ETH0.001070781738 ETH
0x5156782f7ba37108b56f1928bfde6c2aaee38b9ce395ac2892c567e657960ef125801012021-10-26 19:40:111 day 14 hrs ago0x4d8f634f473a8bc25ac70f25efe0ed4d53792bd1OUT 0xabbc5f99639c9b6bcb58544ddf04efa6802f40640 ETH0.001187586834 ETH
0x8be7dc9087159c7f1019d980c5849b684ad20a168e407ce5bbd3e53f64d0efeb25792812021-10-26 19:11:021 day 15 hrs ago0x4d8f634f473a8bc25ac70f25efe0ed4d53792bd1OUT 0xabbc5f99639c9b6bcb58544ddf04efa6802f40640 ETH0.000956607986 ETH
0x1e5f9f5aa4a0faeb862a5c189221ae29652a4d118a8e59e34331b56c43e5a00325660762021-10-26 14:45:501 day 19 hrs ago0x4d8f634f473a8bc25ac70f25efe0ed4d53792bd1OUT 0xabbc5f99639c9b6bcb58544ddf04efa6802f40640 ETH0.002138101164 ETH
0xa80906bb45591a205b4eb0892040ef87b760efcd3ea113007848d26e5394590025541692021-10-26 9:22:022 days 1 hr ago0x4d8f634f473a8bc25ac70f25efe0ed4d53792bd1OUT 0xabbc5f99639c9b6bcb58544ddf04efa6802f40640 ETH0.002001061244 ETH
0xc0c3d67f007a1a27de1dd1936cb9a6beb86041c78c7266c81a9b3e5317751fb225416832021-10-25 19:44:232 days 14 hrs ago0x4d8f634f473a8bc25ac70f25efe0ed4d53792bd1OUT 0xabbc5f99639c9b6bcb58544ddf04efa6802f40640 ETH0.000746581283 ETH
0x1bc0314b3bd406cb3a0cb9f23056a859f658409c6d431867042f244473a20b1025309612021-10-25 8:32:153 days 2 hrs ago0x4d8f634f473a8bc25ac70f25efe0ed4d53792bd1OUT 0xabbc5f99639c9b6bcb58544ddf04efa6802f40640 ETH0.001657118458 ETH
0xee9b3fe00726cffde8aa907bc96133aea34cf3c19a8eb34f9e2c2346f5b7037d25057912021-10-24 19:13:483 days 15 hrs ago0x4d8f634f473a8bc25ac70f25efe0ed4d53792bd1OUT Uniswap V3: Router0 ETH0.000679452411 ETH
0xf41770b58ea9a58d8093f921e541f1462526492d6afd50a5ef0b6d012aaa502325057712021-10-24 19:13:383 days 15 hrs ago0x4d8f634f473a8bc25ac70f25efe0ed4d53792bd1OUT 0xabbc5f99639c9b6bcb58544ddf04efa6802f40640 ETH0.000743511026 ETH
0x3f83daf0b43ec74044a9e0b3755674ee56201599b53dd4d3202ca7953da68bd525054152021-10-24 18:43:503 days 15 hrs ago0x4d8f634f473a8bc25ac70f25efe0ed4d53792bd1OUT 0xabbc5f99639c9b6bcb58544ddf04efa6802f40640 ETH0.001467449099 ETH
0x4464ffcab3fcd1fe6a0bccdf7e1e57b0c3b67283975e7b9aca5f09277e2f069225039042021-10-24 17:05:483 days 17 hrs ago0x4d8f634f473a8bc25ac70f25efe0ed4d53792bd1OUT 0xabbc5f99639c9b6bcb58544ddf04efa6802f40640 ETH0.000570899876 ETH
0x9c3061100638f5574139b33ce5ec7a428a924eeb799667e9c2b69ebe74cd4d6925032092021-10-24 16:30:513 days 18 hrs ago0x4d8f634f473a8bc25ac70f25efe0ed4d53792bd1OUT Uniswap V3: Router0 ETH0.000629507094 ETH
0xf76ecb4520da1bb92a4fd10a0b43e94c10e1ebee8de05797db1c9ce0174d846325031372021-10-24 16:29:273 days 18 hrs ago0x4d8f634f473a8bc25ac70f25efe0ed4d53792bd1OUT 0xabbc5f99639c9b6bcb58544ddf04efa6802f40640 ETH0.000725832839 ETH
0x0fc38363b8325ad8266f68a345d0ce54af15dd31dcc55ae754bdbee40ffab46c24958922021-10-24 11:41:563 days 22 hrs ago0x4d8f634f473a8bc25ac70f25efe0ed4d53792bd1OUT 0xabbc5f99639c9b6bcb58544ddf04efa6802f40640 ETH0.001400926141 ETH
[ Download CSV Export 
Parent Txn Hash Block From To Value
Loading

Contract Name:
0 ETH

Compiler Version
0

Optimization Enabled:
0 ETH

Other Settings:
-NA-
Block Transaction Gas Used Reward
Age Block Fee Address BC Fee Address Voting Power Jailed Incoming
Block Uncle Number Difficulty Gas Used Reward
Loading
Loading
Make sure to use the "Vote Down" button for any spammy posts, and the "Vote Up" for interesting conversations.